sensor_id;sensor_type;location;lat;lon;timestamp;temperature;humidity
47540;DHT22;33280;52.152;21.052;2023-07-29T11:32:54;29.50;99.90
47540;DHT22;33280;52.152;21.052;2023-07-29T12:43:41;33.20;92.40
47540;DHT22;33280;52.152;21.052;2023-07-29T12:47:10;32.90;91.80
47540;DHT22;33280;52.152;21.052;2023-07-29T12:50:16;33.00;92.00
47540;DHT22;33280;52.152;21.052;2023-07-29T12:53:37;32.80;92.20
47540;DHT22;33280;52.152;21.052;2023-07-29T12:56:09;33.60;91.60
47540;DHT22;33280;52.152;21.052;2023-07-29T12:58:39;34.00;90.20
47540;DHT22;33280;52.152;21.052;2023-07-29T13:06:57;34.40;87.10
47540;DHT22;33280;52.152;21.052;2023-07-29T13:09:26;34.60;83.90
47540;DHT22;33280;52.152;21.052;2023-07-29T13:11:53;34.30;86.20
47540;DHT22;33280;52.152;21.052;2023-07-29T13:14:20;34.30;85.10
47540;DHT22;33280;52.152;21.052;2023-07-29T13:16:47;33.80;84.70
47540;DHT22;33280;52.152;21.052;2023-07-29T13:19:14;33.70;86.10
47540;DHT22;33280;52.152;21.052;2023-07-29T13:21:41;33.90;86.00
47540;DHT22;33280;52.152;21.052;2023-07-29T13:24:08;34.20;84.50
47540;DHT22;33280;52.152;21.052;2023-07-29T13:26:35;34.00;83.40
47540;DHT22;33280;52.152;21.052;2023-07-29T13:29:03;33.50;83.60
47540;DHT22;33280;52.152;21.052;2023-07-29T13:31:35;32.70;85.40
47540;DHT22;33280;52.152;21.052;2023-07-29T13:34:02;32.50;85.70
47540;DHT22;33280;52.152;21.052;2023-07-29T13:36:29;32.30;88.20
47540;DHT22;33280;52.152;21.052;2023-07-29T13:38:56;32.60;88.60
47540;DHT22;33280;52.152;21.052;2023-07-29T13:41:23;33.10;87.70
47540;DHT22;33280;52.152;21.052;2023-07-29T13:43:50;33.50;87.50
47540;DHT22;33280;52.152;21.052;2023-07-29T13:46:17;33.80;86.30
47540;DHT22;33280;52.152;21.052;2023-07-29T13:48:47;33.90;84.20
47540;DHT22;33280;52.152;21.052;2023-07-29T13:51:14;33.00;84.50
47540;DHT22;33280;52.152;21.052;2023-07-29T13:53:41;32.70;85.90
47540;DHT22;33280;52.152;21.052;2023-07-29T13:56:09;31.90;86.60
47540;DHT22;33280;52.152;21.052;2023-07-29T13:58:36;31.80;90.10
47540;DHT22;33280;52.152;21.052;2023-07-29T14:01:03;31.80;87.40
47540;DHT22;33280;52.152;21.052;2023-07-29T14:03:30;31.80;88.60
47540;DHT22;33280;52.152;21.052;2023-07-29T14:05:57;32.20;88.40
47540;DHT22;33280;52.152;21.052;2023-07-29T14:08:24;31.80;87.60
47540;DHT22;33280;52.152;21.052;2023-07-29T14:10:51;32.20;87.50
47540;DHT22;33280;52.152;21.052;2023-07-29T14:13:18;32.10;86.20
47540;DHT22;33280;52.152;21.052;2023-07-29T14:15:45;32.30;88.20
47540;DHT22;33280;52.152;21.052;2023-07-29T14:18:12;33.00;86.60
47540;DHT22;33280;52.152;21.052;2023-07-29T14:20:39;33.30;84.80
47540;DHT22;33280;52.152;21.052;2023-07-29T14:23:07;33.40;84.20
47540;DHT22;33280;52.152;21.052;2023-07-29T14:25:34;33.60;84.50
47540;DHT22;33280;52.152;21.052;2023-07-29T14:28:01;33.80;84.20
47540;DHT22;33280;52.152;21.052;2023-07-29T14:30:28;34.00;83.40
47540;DHT22;33280;52.152;21.052;2023-07-29T14:32:55;34.20;83.20
47540;DHT22;33280;52.152;21.052;2023-07-29T14:35:22;34.60;82.40
47540;DHT22;33280;52.152;21.052;2023-07-29T14:37:49;34.90;83.00
47540;DHT22;33280;52.152;21.052;2023-07-29T14:40:16;35.00;81.40
47540;DHT22;33280;52.152;21.052;2023-07-29T14:42:43;34.50;80.50
47540;DHT22;33280;52.152;21.052;2023-07-29T14:45:10;34.60;81.10
47540;DHT22;33280;52.152;21.052;2023-07-29T14:47:37;33.40;79.70
47540;DHT22;33280;52.152;21.052;2023-07-29T14:50:04;32.80;83.10
47540;DHT22;33280;52.152;21.052;2023-07-29T14:52:31;32.60;86.00
47540;DHT22;33280;52.152;21.052;2023-07-29T14:54:58;32.50;85.50
47540;DHT22;33280;52.152;21.052;2023-07-29T14:57:25;32.50;86.60
47540;DHT22;33280;52.152;21.052;2023-07-29T14:59:52;32.40;87.10
47540;DHT22;33280;52.152;21.052;2023-07-29T15:02:19;32.20;89.60
47540;DHT22;33280;52.152;21.052;2023-07-29T15:04:46;32.00;89.70
47540;DHT22;33280;52.152;21.052;2023-07-29T15:07:13;31.70;88.80
47540;DHT22;33280;52.152;21.052;2023-07-29T15:09:41;31.50;89.00
47540;DHT22;33280;52.152;21.052;2023-07-29T15:12:08;31.70;89.90
47540;DHT22;33280;52.152;21.052;2023-07-29T15:14:35;32.20;89.40
47540;DHT22;33280;52.152;21.052;2023-07-29T15:17:02;32.70;88.00
47540;DHT22;33280;52.152;21.052;2023-07-29T15:19:29;33.20;86.60
47540;DHT22;33280;52.152;21.052;2023-07-29T15:21:57;33.40;85.40
47540;DHT22;33280;52.152;21.052;2023-07-29T15:24:24;33.80;84.80
47540;DHT22;33280;52.152;21.052;2023-07-29T15:26:51;33.60;85.40
47540;DHT22;33280;52.152;21.052;2023-07-29T15:45:23;31.10;90.20
47540;DHT22;33280;52.152;21.052;2023-07-29T15:47:50;30.60;90.60
47540;DHT22;33280;52.152;21.052;2023-07-29T15:50:18;30.40;91.10
47540;DHT22;33280;52.152;21.052;2023-07-29T15:52:45;30.10;91.70
47540;DHT22;33280;52.152;21.052;2023-07-29T15:55:17;29.90;92.10
47540;DHT22;33280;52.152;21.052;2023-07-29T15:57:50;29.40;92.50
47540;DHT22;33280;52.152;21.052;2023-07-29T16:00:18;29.10;93.30
47540;DHT22;33280;52.152;21.052;2023-07-29T18:58:01;23.90;99.90
47540;DHT22;33280;52.152;21.052;2023-07-29T19:04:54;23.60;99.90
47540;DHT22;33280;52.152;21.052;2023-07-29T19:07:21;23.70;99.90
47540;DHT22;33280;52.152;21.052;2023-07-29T19:10:03;23.70;99.90
47540;DHT22;33280;52.152;21.052;2023-07-29T19:12:53;23.70;99.90
47540;DHT22;33280;52.152;21.052;2023-07-29T19:15:34;23.60;99.90
47540;DHT22;33280;52.152;21.052;2023-07-29T19:18:10;23.60;99.90
47540;DHT22;33280;52.152;21.052;2023-07-29T19:20:52;23.50;99.90
47540;DHT22;33280;52.152;21.052;2023-07-29T19:23:20;23.60;99.90
47540;DHT22;33280;52.152;21.052;2023-07-29T19:25:49;23.50;99.90
47540;DHT22;33280;52.152;21.052;2023-07-29T19:40:21;23.20;99.90
47540;DHT22;33280;52.152;21.052;2023-07-29T19:46:39;23.10;99.90
47540;DHT22;33280;52.152;21.052;2023-07-29T20:21:28;22.50;99.90
47540;DHT22;33280;52.152;21.052;2023-07-29T20:24:19;22.40;99.90
47540;DHT22;33280;52.152;21.052;2023-07-29T20:26:46;22.30;99.90
47540;DHT22;33280;52.152;21.052;2023-07-29T20:29:13;22.30;99.90
47540;DHT22;33280;52.152;21.052;2023-07-29T20:31:40;22.20;99.90
47540;DHT22;33280;52.152;21.052;2023-07-29T20:34:07;22.20;99.90
47540;DHT22;33280;52.152;21.052;2023-07-29T20:36:34;22.20;99.90
47540;DHT22;33280;52.152;21.052;2023-07-29T20:39:01;22.20;99.90
47540;DHT22;33280;52.152;21.052;2023-07-29T20:41:29;22.20;99.90
47540;DHT22;33280;52.152;21.052;2023-07-29T20:43:56;22.10;99.90
47540;DHT22;33280;52.152;21.052;2023-07-29T20:46:24;22.10;99.90
47540;DHT22;33280;52.152;21.052;2023-07-29T20:48:54;22.10;99.90
47540;DHT22;33280;52.152;21.052;2023-07-29T20:51:21;22.10;99.90
47540;DHT22;33280;52.152;21.052;2023-07-29T21:19:12;21.90;99.90
47540;DHT22;33280;52.152;21.052;2023-07-29T22:06:24;18.40;99.90
47540;DHT22;33280;52.152;21.052;2023-07-29T22:08:59;18.40;99.90
47540;DHT22;33280;52.152;21.052;2023-07-29T22:11:26;18.50;99.90
47540;DHT22;33280;52.152;21.052;2023-07-29T22:13:56;18.60;99.90
47540;DHT22;33280;52.152;21.052;2023-07-29T22:16:31;18.60;99.90
47540;DHT22;33280;52.152;21.052;2023-07-29T22:19:08;18.50;99.90
47540;DHT22;33280;52.152;21.052;2023-07-29T22:34:38;18.60;99.90
